Terre Haute International Hulman Field
KHUF : now visible

Airfield :











YOU CAN JOIN US ON...

 
LOGIN :

Register | Disclaimer

   EN    FR    IT 

 









Legend :    VFR   Marginal VFR   IFR   Intensive IFR   Very Intensive IFR
Visi :
Ceiling :
>= 8 km
>= 3000ft
5 to 8 km
1000 to 3000 ft
1500m to 5 km
500 to 1000 ft
800 to 1500m
200 to 500 ft
< 800m
< 200 ft
Symbols :   Thunderstorms  Fog  Heavy snow  Heavy precipitations  Wind > 20 kt






- Airport Elevation : 589 ft
- IATA code : HUF


KHUF - Terre Haute International Hulman Field

CURRENT METAR :
  • 041853Z 01008KT 10SM FEW048 SCT065 32/22 A2998 RMK AO2 SLP148 T03220217

EXPIRED METARs :
  • 041753Z 36006KT 10SM FEW043 32/21 A3000 RMK AO2 SLP153 T03170211 10328 20233 58006
  • 041653Z 04007KT 10SM CLR 32/22 A3001 RMK AO2 SLP156 T03220217

TAF KHUF
Valid from the 04 at 18:00 until the 05 at 18:00 UTC


041720Z 0418/0518 05006KT P6SM SCT060
FM050200 VRB04KT P6SM FEW250
FM051600 09004KT P6SM FEW050 SCT200
KZID FIR / North America



MET'MAP, your aeronautical weather chart ! - Copyright ORBIFLY December 2007 - Disclaimer

ORBIFLY MET'MAP TEAM :

Programming & Development : Alexandra Zaïnal
Concept & original design : Baudouin d'Aumeries
Assistance for programming : Marc-Olivier Méhu
Technical & hardware support : Manuel Goepfert

Contact : metmap@orbifly.com




SOURCES & CREDITS :

   NOAA       Earth
Advisory